Allagash, ME

9:25 AM EST on February 07, 2016 (GMT -0500)
Apex Wx | | Change Station
CLOSE
Current Station
Personal Weather Station
Location: Fort Kent, ME
Elevation: 541 ft
Nearby Weather Stations

Elev 541 ft 47.25 °N, 68.58 °W | Updated 38 seconds ago

Mostly Cloudy
Mostly Cloudy
11.3 °F
Feels Like -2 °F
N
10.0
Wind Variable Wind from NNW
Gusts 20.0 mph

Today
High -- | Low -- °F
--% Chance of Precip.
Yesterday
High -- | Low -- °F
Precip. -- in
Pressure 30.01 in
Visibility 6.0 miles
Clouds Few 1700 ft
Mostly Cloudy 2600 ft
Windchill -2 °F
Dew Point 3 °F
Humidity 68%
Rainfall 0.00 in
Snow Depth Not available.
6:53 AM 4:47 PM
Waning Crescent, 1% visible
SPECI KFVE 071407Z AUTO 32015G24KT 6SM BLSN FEW017 BKN026 M13/M18 A3001 RMK AO2 SNE1358 PRESRR P0000 T11281178
Pressure 30.01 in
Visibility 6.0 miles
Clouds Few 1700 ft
Mostly Cloudy 2600 ft
Windchill -2 °F
Dew Point 3 °F
Humidity 68%
Rainfall 0.00 in
Snow Depth Not available.
6:53 AM 4:47 PM
Waning Crescent, 1% visible
SPECI KFVE 071407Z AUTO 32015G24KT 6SM BLSN FEW017 BKN026 M13/M18 A3001 RMK AO2 SNE1358 PRESRR P0000 T11281178

10-Day Weather Forecast

Almanac

Astronomy

Feb. 07, 2016 Rise Set
Actual Time
Civil Twilight
Nautical Twilight
Astronomical Twilight
Moon
Length of Visible Light
Length of Day
Tomorrow will be .
, % of the Moon is Illuminated

Today's Extremes

State Highs State Lows

Community

WunderPhotos

Upload Photos

1,891,204 photos uploaded!

WunderBlog® & News

Nearby

Air Quality

  Air Quality AQ Index Pollutant
Not available.

Snow Depth

Station Depth Elevation

Earthquake Activity

City Distance Mag. Time & Date
Minimum magnitude displayed is 2.5.

Coastal Water Temperatures

Place Temperature

Stations

Nearby Weather Stations

Station Location Temp. Windchill Dew Point Humidity Wind Precip. Elev Updated Type
                   

Watches & Warnings

There are currently no watches in effect.